createdAt,value
2022-12-11T00:00:05.022Z,31.08
2022-12-11T00:02:31.412Z,31.00
2022-12-11T00:04:57.896Z,28.77
2022-12-11T00:07:24.295Z,28.30
2022-12-11T00:09:50.674Z,33.22
2022-12-11T00:12:17.031Z,36.08
2022-12-11T00:14:43.381Z,35.30
2022-12-11T00:17:10.089Z,35.88
2022-12-11T00:19:36.571Z,31.07
2022-12-11T00:22:03.239Z,31.30
2022-12-11T00:24:29.615Z,24.92
2022-12-11T00:26:56.023Z,31.90
2022-12-11T00:29:22.381Z,30.27
2022-12-11T00:31:48.777Z,29.63
2022-12-11T00:34:15.195Z,27.13
2022-12-11T00:36:41.611Z,32.88
2022-12-11T00:39:08.064Z,31.88
2022-12-11T00:41:34.619Z,31.98
2022-12-11T00:44:01.037Z,27.47
2022-12-11T00:46:27.550Z,31.70
2022-12-11T00:48:53.971Z,30.13
2022-12-11T00:51:20.432Z,27.85
2022-12-11T00:53:47.025Z,30.75
2022-12-11T00:56:19.547Z,29.70
2022-12-11T00:58:47.235Z,27.35
2022-12-11T01:01:16.652Z,27.17
2022-12-11T01:03:43.459Z,26.35
2022-12-11T01:06:15.323Z,28.83
2022-12-11T01:08:42.499Z,28.20
2022-12-11T01:11:11.369Z,27.17
2022-12-11T01:13:38.972Z,27.08
2022-12-11T01:16:11.294Z,25.17
2022-12-11T01:18:38.594Z,25.45
2022-12-11T01:21:09.800Z,26.23
2022-12-11T01:23:36.715Z,25.45
2022-12-11T01:26:11.379Z,28.20
2022-12-11T01:28:38.353Z,24.58
2022-12-11T01:31:10.044Z,26.30
2022-12-11T01:33:37.009Z,25.03
2022-12-11T01:36:22.889Z,32.28
2022-12-11T01:38:49.788Z,29.80
2022-12-11T01:41:18.104Z,25.13
2022-12-11T01:44:02.932Z,28.40
2022-12-11T01:46:30.974Z,25.03
2022-12-11T01:48:58.987Z,29.05
2022-12-11T01:51:26.915Z,28.25
2022-12-11T01:53:58.808Z,24.45
2022-12-11T01:56:25.420Z,25.30
2022-12-11T01:58:55.115Z,25.33
2022-12-11T02:01:36.715Z,29.65
2022-12-11T02:04:04.282Z,28.45
2022-12-11T02:06:33.996Z,28.73
2022-12-11T02:09:01.555Z,26.13
2022-12-11T02:11:57.957Z,28.50
2022-12-11T02:14:43.522Z,27.75
2022-12-11T02:17:19.537Z,29.15
2022-12-11T02:20:01.535Z,26.40
2022-12-11T02:22:47.801Z,23.05
2022-12-11T02:25:41.006Z,26.73
2022-12-11T02:28:34.867Z,26.42
2022-12-11T02:31:10.584Z,25.92
2022-12-11T02:33:43.694Z,29.10
2022-12-11T02:36:10.658Z,29.17
2022-12-11T02:38:41.692Z,30.03
2022-12-11T02:41:11.445Z,27.38
2022-12-11T02:43:39.484Z,29.73
2022-12-11T02:46:08.032Z,25.42
2022-12-11T02:48:36.770Z,32.45
2022-12-11T02:51:06.197Z,28.67
2022-12-11T02:53:35.500Z,29.50
2022-12-11T02:56:26.776Z,32.45
2022-12-11T02:59:02.939Z,27.30
2022-12-11T03:01:29.351Z,29.35
2022-12-11T03:03:56.486Z,28.20
2022-12-11T03:06:32.296Z,29.92
2022-12-11T03:08:58.791Z,34.10
2022-12-11T03:11:25.205Z,35.40
2022-12-11T03:13:53.722Z,28.98
2022-12-11T03:16:38.872Z,30.10
2022-12-11T03:19:26.638Z,28.38
2022-12-11T03:22:22.612Z,28.55
2022-12-11T03:24:55.004Z,25.25
2022-12-11T03:27:33.058Z,22.88
2022-12-11T03:30:05.682Z,28.20
2022-12-11T03:32:44.502Z,27.15
2022-12-11T03:35:21.492Z,27.45
2022-12-11T03:37:49.594Z,28.40
2022-12-11T03:40:19.224Z,28.10
2022-12-11T03:42:49.627Z,30.33
2022-12-11T03:45:18.661Z,26.45
2022-12-11T03:47:47.300Z,28.23
2022-12-11T03:50:18.108Z,27.60
2022-12-11T03:52:46.535Z,27.73
2022-12-11T03:55:15.104Z,28.23
2022-12-11T03:57:41.616Z,27.05
2022-12-11T04:00:12.762Z,26.40
2022-12-11T04:02:39.845Z,26.80
2022-12-11T04:05:06.798Z,30.15
2022-12-11T04:07:33.208Z,27.50
2022-12-11T04:10:00.358Z,26.70
2022-12-11T04:12:26.829Z,29.15
2022-12-11T04:15:02.343Z,27.38
2022-12-11T04:17:52.908Z,26.58
2022-12-11T04:20:38.620Z,28.73
2022-12-11T04:23:33.140Z,26.38
2022-12-11T04:26:11.604Z,25.85
2022-12-11T04:28:39.363Z,26.58
2022-12-11T04:31:06.222Z,25.45
2022-12-11T04:33:32.654Z,25.37
2022-12-11T04:36:00.726Z,32.53
2022-12-11T04:38:27.721Z,28.88
2022-12-11T04:41:01.716Z,28.55
2022-12-11T04:43:28.546Z,28.60
2022-12-11T04:46:05.991Z,28.13
2022-12-11T04:48:32.734Z,27.40
2022-12-11T04:50:59.266Z,24.80
2022-12-11T04:53:26.631Z,27.85
2022-12-11T04:55:53.104Z,31.17
2022-12-11T04:58:19.450Z,29.23
2022-12-11T05:00:46.414Z,28.17
2022-12-11T05:03:12.996Z,25.75
2022-12-11T05:05:39.637Z,28.40
2022-12-11T05:08:06.177Z,29.77
2022-12-11T05:10:32.591Z,28.00
2022-12-11T05:12:58.962Z,26.77
2022-12-11T05:15:25.330Z,27.70
2022-12-11T05:17:51.686Z,27.35
2022-12-11T05:20:18.158Z,27.70
2022-12-11T05:22:44.510Z,32.17
2022-12-11T05:25:11.210Z,28.67
2022-12-11T05:27:37.841Z,28.73
2022-12-11T05:30:04.732Z,30.75
2022-12-11T05:32:31.128Z,33.13
2022-12-11T05:34:57.772Z,27.50
2022-12-11T05:37:24.231Z,28.80
2022-12-11T05:39:50.588Z,26.52
2022-12-11T05:42:16.921Z,29.40
2022-12-11T05:44:43.319Z,26.85
2022-12-11T05:47:09.667Z,34.07
2022-12-11T05:49:36.155Z,37.00
2022-12-11T05:52:02.516Z,34.30
2022-12-11T05:54:28.871Z,34.75
2022-12-11T05:56:55.273Z,30.25
2022-12-11T05:59:21.620Z,29.20
2022-12-11T06:01:48.093Z,28.77
2022-12-11T06:04:14.624Z,30.35
2022-12-11T06:06:41.317Z,30.35
2022-12-11T06:09:07.940Z,30.20
2022-12-11T06:11:34.871Z,30.03
2022-12-11T06:14:02.972Z,30.08
2022-12-11T06:16:29.437Z,28.95
2022-12-11T06:18:58.468Z,26.92
2022-12-11T06:21:29.875Z,30.50
2022-12-11T06:23:58.595Z,32.30
2022-12-11T06:26:25.927Z,32.10
2022-12-11T06:28:52.682Z,32.67
2022-12-11T06:31:20.183Z,29.08
2022-12-11T06:33:47.561Z,32.15
2022-12-11T06:36:17.090Z,29.13
2022-12-11T06:38:44.245Z,29.40
2022-12-11T06:41:11.234Z,28.88
2022-12-11T06:43:40.086Z,30.05
2022-12-11T06:46:09.218Z,26.95
2022-12-11T06:48:35.918Z,22.83
2022-12-11T06:51:10.181Z,25.38
2022-12-11T06:53:36.903Z,23.92
2022-12-11T06:56:09.348Z,27.40
2022-12-11T06:58:37.107Z,26.98
2022-12-11T07:01:04.885Z,24.40
2022-12-11T07:03:31.438Z,23.13
2022-12-11T07:06:02.367Z,29.55
2022-12-11T07:08:29.645Z,29.70
2022-12-11T07:11:02.663Z,25.02
2022-12-11T07:13:29.007Z,22.00
2022-12-11T07:15:55.359Z,25.27
2022-12-11T07:18:21.696Z,27.45
2022-12-11T07:20:48.052Z,26.17
2022-12-11T07:23:14.383Z,24.92
2022-12-11T07:25:40.739Z,26.37
2022-12-11T07:28:09.113Z,28.55
2022-12-11T07:30:38.289Z,23.88
2022-12-11T07:33:05.721Z,25.00
2022-12-11T07:35:34.862Z,25.92
2022-12-11T07:38:01.344Z,27.03
2022-12-11T07:40:27.764Z,26.70
2022-12-11T07:42:54.192Z,27.58
2022-12-11T07:45:20.593Z,27.38
2022-12-11T07:47:46.953Z,26.75
2022-12-11T07:50:13.344Z,27.20
2022-12-11T07:52:39.687Z,27.92
2022-12-11T07:55:06.161Z,27.67
2022-12-11T07:57:32.512Z,27.58
2022-12-11T07:59:58.854Z,24.38
2022-12-11T08:02:25.282Z,31.87
2022-12-11T08:04:51.746Z,30.15
2022-12-11T08:07:18.080Z,30.20
2022-12-11T08:09:44.453Z,30.13
2022-12-11T08:12:11.918Z,24.80
2022-12-11T08:14:38.259Z,26.70
2022-12-11T08:17:04.919Z,25.80
2022-12-11T08:19:31.327Z,24.67
2022-12-11T08:21:57.733Z,24.67
2022-12-11T08:24:24.080Z,28.13
2022-12-11T08:26:50.456Z,27.90
2022-12-11T08:29:16.993Z,30.40
2022-12-11T08:31:43.415Z,30.58
2022-12-11T08:34:13.696Z,28.08
2022-12-11T08:36:40.189Z,28.98
2022-12-11T08:39:06.669Z,28.57
2022-12-11T08:41:33.035Z,30.17
2022-12-11T08:44:00.382Z,29.33
2022-12-11T08:46:30.761Z,24.15
2022-12-11T08:48:58.656Z,28.00
2022-12-11T08:51:27.109Z,26.40
2022-12-11T08:53:58.230Z,26.13
2022-12-11T08:56:25.233Z,26.42
2022-12-11T08:58:52.483Z,22.45
2022-12-11T09:01:21.776Z,30.88
2022-12-11T09:03:49.056Z,27.87
2022-12-11T09:06:18.142Z,25.27
2022-12-11T09:08:51.895Z,27.58
2022-12-11T09:11:21.939Z,25.20
2022-12-11T09:13:48.816Z,26.17
2022-12-11T09:16:19.700Z,26.53
2022-12-11T09:18:47.873Z,28.10
2022-12-11T09:21:16.939Z,32.50
2022-12-11T09:23:43.656Z,26.63
2022-12-11T09:26:16.121Z,28.20
2022-12-11T09:28:46.737Z,29.77
2022-12-11T09:31:23.512Z,29.88
2022-12-11T09:33:52.016Z,28.85
2022-12-11T09:36:18.940Z,30.63
2022-12-11T09:38:46.371Z,24.83
2022-12-11T09:41:21.906Z,25.30
2022-12-11T09:44:13.111Z,31.20
2022-12-11T09:46:40.774Z,27.40
2022-12-11T09:49:20.859Z,28.88
2022-12-11T09:52:09.965Z,30.75
2022-12-11T09:54:36.746Z,30.03
2022-12-11T09:57:14.633Z,32.45
2022-12-11T10:00:02.723Z,28.27
2022-12-11T10:02:59.101Z,25.35
2022-12-11T10:05:45.394Z,24.98
2022-12-11T10:08:23.681Z,19.03
2022-12-11T10:11:27.978Z,19.73
2022-12-11T10:14:25.084Z,19.13
2022-12-11T10:17:02.517Z,22.10
2022-12-11T10:19:31.533Z,24.02
2022-12-11T10:22:00.039Z,19.33
2022-12-11T10:27:39.249Z,23.27
2022-12-11T10:30:18.655Z,23.85
2022-12-11T10:32:44.988Z,24.10
2022-12-11T10:35:19.966Z,24.80
2022-12-11T10:37:46.369Z,17.85
2022-12-11T10:40:13.648Z,22.00
2022-12-11T10:42:44.158Z,20.02
2022-12-11T10:45:16.225Z,21.63
2022-12-11T10:47:42.579Z,22.17
2022-12-11T10:50:24.922Z,19.40
2022-12-11T10:52:52.827Z,21.30
2022-12-11T10:55:24.361Z,21.95
2022-12-11T10:58:05.701Z,19.38
2022-12-11T11:00:37.455Z,21.37
2022-12-11T11:03:07.782Z,20.30
2022-12-11T11:05:36.395Z,20.98
2022-12-11T11:08:16.004Z,18.13
2022-12-11T11:10:55.791Z,18.30
2022-12-11T11:13:27.794Z,21.20
2022-12-11T11:16:13.020Z,19.35
2022-12-11T11:18:41.371Z,19.27
2022-12-11T11:21:17.609Z,18.92
2022-12-11T11:23:47.281Z,19.05
2022-12-11T11:26:15.800Z,20.13
2022-12-11T11:28:54.656Z,20.45
2022-12-11T11:31:32.930Z,18.80
2022-12-11T11:34:06.595Z,18.50
2022-12-11T11:36:35.896Z,22.77
2022-12-11T11:39:20.405Z,22.40
2022-12-11T11:41:54.035Z,19.40
2022-12-11T11:44:31.358Z,18.45
2022-12-11T11:47:05.895Z,22.27
2022-12-11T11:49:52.938Z,22.42
2022-12-11T11:52:38.884Z,19.67
2022-12-11T11:55:22.045Z,20.75
2022-12-11T11:58:07.427Z,16.55
2022-12-11T12:00:34.255Z,19.50
2022-12-11T12:03:06.030Z,19.30
2022-12-11T12:05:44.764Z,28.97
2022-12-11T12:08:21.233Z,29.58
2022-12-11T12:10:53.548Z,22.95
2022-12-11T12:13:50.171Z,18.75
2022-12-11T12:16:54.823Z,20.52
2022-12-11T12:19:48.606Z,22.30
2022-12-11T12:22:39.162Z,21.73
2022-12-11T12:25:14.616Z,21.27
2022-12-11T12:27:52.810Z,22.88
2022-12-11T12:30:23.409Z,24.60
2022-12-11T12:33:19.724Z,22.43
2022-12-11T12:36:17.891Z,27.70
2022-12-11T12:39:13.385Z,29.90
2022-12-11T12:42:22.742Z,34.00
2022-12-11T12:45:03.637Z,27.60
2022-12-11T12:47:34.434Z,24.70
2022-12-11T12:50:03.098Z,25.75
2022-12-11T12:52:33.572Z,30.30
2022-12-11T12:55:14.662Z,28.33
2022-12-11T12:57:49.493Z,31.83
2022-12-11T13:00:34.310Z,33.00
2022-12-11T13:03:20.725Z,35.10
2022-12-11T13:06:13.387Z,35.65
2022-12-11T13:08:44.099Z,40.97
2022-12-11T13:11:12.990Z,39.97
2022-12-11T13:14:04.141Z,34.97
2022-12-11T13:16:42.251Z,43.78
2022-12-11T13:19:23.961Z,40.72
2022-12-11T13:22:14.755Z,41.38
2022-12-11T13:24:48.677Z,51.67
2022-12-11T13:27:35.971Z,40.30
2022-12-11T13:30:23.181Z,41.30
2022-12-11T13:32:59.443Z,38.35
2022-12-11T13:35:26.519Z,42.13
2022-12-11T13:37:54.101Z,38.90
2022-12-11T13:40:32.980Z,43.57
2022-12-11T13:43:03.775Z,53.42
2022-12-11T13:45:46.431Z,42.85
2022-12-11T13:48:34.599Z,41.35
2022-12-11T13:51:01.607Z,44.72
2022-12-11T13:53:28.462Z,42.23
2022-12-11T13:56:01.999Z,40.78
2022-12-11T13:58:29.526Z,39.65
2022-12-11T14:01:20.493Z,41.95
2022-12-11T14:03:59.234Z,40.83
2022-12-11T14:06:27.968Z,44.60
2022-12-11T14:08:57.696Z,39.45
2022-12-11T14:11:29.324Z,42.25
2022-12-11T14:13:59.515Z,44.80
2022-12-11T14:16:27.553Z,47.45
2022-12-11T14:18:58.293Z,46.70
2022-12-11T14:21:25.713Z,43.85
2022-12-11T14:24:00.304Z,48.65
2022-12-11T14:26:29.775Z,41.85
2022-12-11T14:28:56.377Z,43.60
2022-12-11T14:31:34.388Z,45.27
2022-12-11T14:34:14.297Z,47.25
2022-12-11T14:36:42.014Z,45.92
2022-12-11T14:39:13.169Z,54.80
2022-12-11T14:41:45.756Z,41.80
2022-12-11T14:44:15.859Z,39.67
2022-12-11T14:46:51.463Z,38.85
2022-12-11T14:49:33.386Z,44.78
2022-12-11T14:52:01.014Z,38.10
2022-12-11T14:54:36.385Z,38.08
2022-12-11T14:57:06.555Z,46.13
2022-12-11T14:59:40.977Z,43.20
2022-12-11T15:02:26.968Z,46.45
2022-12-11T15:05:22.035Z,44.70
2022-12-11T15:07:59.599Z,46.47
2022-12-11T15:10:35.468Z,45.83
2022-12-11T15:13:03.354Z,49.63
2022-12-11T15:15:33.111Z,42.50
2022-12-11T15:18:22.397Z,45.60
2022-12-11T15:20:58.650Z,42.88
2022-12-11T15:23:25.654Z,52.40
2022-12-11T15:25:54.834Z,47.55
2022-12-11T15:28:37.163Z,71.32
2022-12-11T15:31:07.051Z,46.63
2022-12-11T15:33:34.864Z,42.83
2022-12-11T15:36:07.100Z,41.43
2022-12-11T15:38:35.050Z,41.03
2022-12-11T15:41:02.778Z,43.42
2022-12-11T15:43:34.508Z,45.42
2022-12-11T15:46:02.667Z,46.15
2022-12-11T15:48:29.037Z,48.33
2022-12-11T15:50:55.403Z,49.38
2022-12-11T15:53:21.728Z,49.60
2022-12-11T15:55:48.544Z,48.65
2022-12-11T15:58:18.980Z,41.25
2022-12-11T16:00:45.721Z,41.77
2022-12-11T16:03:14.546Z,45.00
2022-12-11T16:05:42.226Z,49.10
2022-12-11T16:08:14.897Z,41.92
2022-12-11T16:10:43.337Z,39.50
2022-12-11T16:13:11.132Z,43.03
2022-12-11T16:15:43.522Z,41.55
2022-12-11T16:18:13.288Z,46.90
2022-12-11T16:20:41.073Z,44.58
2022-12-11T16:23:08.102Z,43.80
2022-12-11T16:25:37.565Z,48.77
2022-12-11T16:28:04.171Z,47.17
2022-12-11T16:30:30.925Z,42.10
2022-12-11T16:32:57.579Z,42.08
2022-12-11T16:35:23.932Z,41.38
2022-12-11T16:37:51.619Z,46.47
2022-12-11T16:40:18.537Z,40.55
2022-12-11T16:42:45.659Z,44.00
2022-12-11T16:45:23.612Z,42.80
2022-12-11T16:47:49.985Z,42.95
2022-12-11T16:50:17.366Z,42.20
2022-12-11T16:52:44.499Z,40.25
2022-12-11T16:55:13.253Z,42.10
2022-12-11T16:57:40.457Z,45.05
2022-12-11T17:00:08.993Z,42.63
2022-12-11T17:02:36.304Z,39.07
2022-12-11T17:05:02.810Z,39.75
2022-12-11T17:07:31.611Z,43.13
2022-12-11T17:09:58.052Z,40.90
2022-12-11T17:12:27.668Z,46.60
2022-12-11T17:14:54.908Z,50.50
2022-12-11T17:17:21.388Z,49.70
2022-12-11T17:19:47.756Z,50.13
2022-12-11T17:22:14.193Z,48.63
2022-12-11T17:24:40.597Z,54.58
2022-12-11T17:27:07.021Z,50.20
2022-12-11T17:29:33.453Z,47.78
2022-12-11T17:31:59.858Z,40.00
2022-12-11T17:34:26.205Z,41.40
2022-12-11T17:36:52.605Z,38.67
2022-12-11T17:39:18.995Z,38.80
2022-12-11T17:41:45.411Z,41.72
2022-12-11T17:44:11.787Z,40.55
2022-12-11T17:46:38.318Z,39.58
2022-12-11T17:49:05.397Z,41.95
2022-12-11T17:51:31.789Z,41.30
2022-12-11T17:53:58.393Z,41.25
2022-12-11T17:56:25.434Z,38.72
2022-12-11T17:58:51.958Z,40.08
2022-12-11T18:01:19.316Z,39.42
2022-12-11T18:03:46.850Z,34.53
2022-12-11T18:06:15.123Z,34.78
2022-12-11T18:08:42.615Z,34.92
2022-12-11T18:11:21.674Z,30.02
2022-12-11T18:13:49.707Z,37.13
2022-12-11T18:16:19.356Z,38.00
2022-12-11T18:18:47.580Z,40.28
2022-12-11T18:21:16.750Z,41.75
2022-12-11T18:23:44.104Z,40.00
2022-12-11T18:26:11.469Z,38.42
2022-12-11T18:28:37.860Z,38.97
2022-12-11T18:31:04.336Z,39.92
2022-12-11T18:33:31.118Z,40.22
2022-12-11T18:35:57.643Z,36.75
2022-12-11T18:38:24.066Z,36.92
2022-12-11T18:40:50.407Z,40.43
2022-12-11T18:43:16.765Z,38.55
2022-12-11T18:45:45.070Z,35.15
2022-12-11T18:48:12.757Z,35.10
2022-12-11T18:50:47.634Z,40.30
2022-12-11T18:53:14.388Z,41.13
2022-12-11T18:55:45.030Z,35.50
2022-12-11T18:58:12.970Z,38.33
2022-12-11T19:00:40.960Z,33.38
2022-12-11T19:03:08.773Z,39.55
2022-12-11T19:05:36.064Z,35.20
2022-12-11T19:08:03.560Z,46.60
2022-12-11T19:10:29.960Z,42.40
2022-12-11T19:12:56.316Z,38.15
2022-12-11T19:15:24.137Z,42.33
2022-12-11T19:17:50.749Z,51.30
2022-12-11T19:20:48.589Z,41.10
2022-12-11T19:23:04.065Z,35.38
2022-12-11T19:25:30.455Z,34.95
2022-12-11T19:27:56.989Z,31.95
2022-12-11T19:30:23.898Z,37.67
2022-12-11T19:32:50.318Z,33.05
2022-12-11T19:35:18.027Z,34.33
2022-12-11T19:37:44.814Z,35.40
2022-12-11T19:40:11.404Z,33.78
2022-12-11T19:42:37.804Z,32.97
2022-12-11T19:45:04.572Z,36.92
2022-12-11T19:47:30.907Z,37.33
2022-12-11T19:49:57.283Z,36.53
2022-12-11T19:52:23.679Z,29.67
2022-12-11T19:54:50.079Z,33.23
2022-12-11T19:57:16.494Z,36.13
2022-12-11T19:59:42.840Z,38.42
2022-12-11T20:02:11.574Z,41.50
2022-12-11T20:04:38.076Z,38.55
2022-12-11T20:07:04.488Z,38.70
2022-12-11T20:09:30.916Z,38.35
2022-12-11T20:11:57.271Z,34.38
2022-12-11T20:14:25.837Z,35.22
2022-12-11T20:17:10.861Z,41.08
2022-12-11T20:19:39.181Z,31.97
2022-12-11T20:22:05.655Z,34.65
2022-12-11T20:24:32.123Z,32.95
2022-12-11T20:26:58.455Z,35.13
2022-12-11T20:29:24.828Z,33.33
2022-12-11T20:31:51.502Z,30.70
2022-12-11T20:34:18.112Z,29.90
2022-12-11T20:36:44.537Z,34.25
2022-12-11T20:39:10.947Z,36.08
2022-12-11T20:41:37.387Z,37.08
2022-12-11T20:44:03.791Z,32.97
2022-12-11T20:46:30.159Z,38.78
2022-12-11T20:48:58.710Z,33.17
2022-12-11T20:51:26.586Z,33.90
2022-12-11T20:54:01.099Z,31.88
2022-12-11T20:56:29.983Z,35.67
2022-12-11T20:58:57.972Z,38.05
2022-12-11T21:01:26.456Z,32.88
2022-12-11T21:03:53.519Z,31.88
2022-12-11T21:06:21.546Z,34.33
2022-12-11T21:08:47.994Z,33.80
2022-12-11T21:11:14.455Z,38.08
2022-12-11T21:13:40.940Z,40.85
2022-12-11T21:16:08.356Z,36.33
2022-12-11T21:18:34.896Z,33.28
2022-12-11T21:21:01.283Z,33.57
2022-12-11T21:23:28.036Z,36.72
2022-12-11T21:25:54.560Z,37.50
2022-12-11T21:28:21.721Z,40.47
2022-12-11T21:30:48.154Z,36.00
2022-12-11T21:33:14.577Z,39.87
2022-12-11T21:35:40.936Z,32.97
2022-12-11T21:38:07.560Z,34.83
2022-12-11T21:40:34.050Z,38.65
2022-12-11T21:43:00.394Z,33.85
2022-12-11T21:45:59.157Z,36.10
2022-12-11T21:48:13.759Z,37.15
2022-12-11T21:50:40.879Z,37.30
2022-12-11T21:53:07.314Z,37.10
2022-12-11T21:55:33.756Z,39.72
2022-12-11T21:58:00.116Z,35.43
2022-12-11T22:00:28.129Z,34.45
2022-12-11T22:02:54.583Z,32.42
2022-12-11T22:05:21.052Z,35.10
2022-12-11T22:07:47.476Z,40.95
2022-12-11T22:10:13.999Z,36.73
2022-12-11T22:12:40.447Z,37.22
2022-12-11T22:15:07.715Z,33.45
2022-12-11T22:17:34.139Z,31.85
2022-12-11T22:20:00.496Z,32.85
2022-12-11T22:22:26.858Z,37.30
2022-12-11T22:24:53.207Z,34.92
2022-12-11T22:27:23.609Z,40.70
2022-12-11T22:29:50.444Z,32.25
2022-12-11T22:32:16.839Z,36.50
2022-12-11T22:34:43.214Z,34.33
2022-12-11T22:37:09.584Z,35.38
2022-12-11T22:39:35.921Z,32.28
2022-12-11T22:42:02.269Z,34.95
2022-12-11T22:44:28.636Z,30.17
2022-12-11T22:46:54.985Z,34.73
2022-12-11T22:49:21.377Z,36.38
2022-12-11T22:51:48.086Z,33.70
2022-12-11T22:54:14.505Z,30.67
2022-12-11T22:56:40.957Z,33.72
2022-12-11T22:59:07.527Z,35.33
2022-12-11T23:01:34.167Z,33.15
2022-12-11T23:04:00.639Z,32.67
2022-12-11T23:06:27.144Z,34.65
2022-12-11T23:08:56.785Z,36.75
2022-12-11T23:11:36.305Z,36.50
2022-12-11T23:14:04.757Z,36.40
2022-12-11T23:16:31.351Z,34.63
2022-12-11T23:18:58.375Z,37.90
2022-12-11T23:21:26.601Z,32.53
2022-12-11T23:23:54.054Z,29.60
2022-12-11T23:26:20.862Z,30.42
2022-12-11T23:28:47.768Z,34.92
2022-12-11T23:31:14.478Z,34.40
2022-12-11T23:33:40.974Z,33.50
2022-12-11T23:36:08.880Z,31.00
2022-12-11T23:38:35.519Z,33.25
2022-12-11T23:41:03.022Z,35.42
2022-12-11T23:43:29.460Z,30.80
2022-12-11T23:45:55.966Z,34.65
2022-12-11T23:48:22.465Z,32.77
2022-12-11T23:50:48.835Z,34.38
2022-12-11T23:53:15.520Z,28.60
2022-12-11T23:55:44.687Z,31.60
2022-12-11T23:58:11.765Z,28.20
